Time;durP1;ratioP1;P1;durP2;ratioP2;P2;SDS_P1;SDS_P2;PMS_P1;PMS_P2;Temp;Humidity;BMP_temperature;BMP_pressure;BME280_temperature;BME280_humidity;BME280_pressure;Samples;Min_cycle;Max_cycle;Signal;HPM_P1;HPM_P2
2023/03/22 00:00:16;;;;;;;1.23;0.43;;;17.60;73.30;;;;;;5065836;28;20469;-67
2023/03/22 00:02:41;;;;;;;3.17;0.63;;;17.60;73.30;;;;;;5032715;28;20438;-67
2023/03/22 00:05:08;;;;;;;0.90;0.50;;;17.60;73.40;;;;;;5042680;28;20124;-67
2023/03/22 00:07:33;;;;;;;1.20;0.40;;;17.60;73.40;;;;;;5053670;28;20512;-67
2023/03/22 00:09:59;;;;;;;1.10;0.47;;;17.60;73.40;;;;;;5053704;28;20033;-67
2023/03/22 00:12:25;;;;;;;2.80;0.60;;;17.60;73.50;;;;;;5047622;28;20029;-68
2023/03/22 00:14:51;;;;;;;2.58;0.55;;;17.60;73.40;;;;;;5065801;28;20033;-67
2023/03/22 00:17:17;;;;;;;1.45;0.60;;;17.60;73.60;;;;;;5033628;28;20033;-67
2023/03/22 00:19:43;;;;;;;1.33;0.30;;;17.60;73.50;;;;;;5033733;28;20022;-67
2023/03/22 00:22:10;;;;;;;1.33;0.47;;;17.60;73.60;;;;;;5033354;28;20108;-67
2023/03/22 00:24:36;;;;;;;2.17;0.63;;;17.50;73.70;;;;;;5065287;28;20040;-67
2023/03/22 00:27:02;;;;;;;1.27;0.50;;;17.60;73.90;;;;;;5033314;28;20021;-67
2023/03/22 00:29:28;;;;;;;1.45;0.60;;;17.50;73.80;;;;;;5065603;28;20029;-67
2023/03/22 00:31:54;;;;;;;2.17;0.75;;;17.60;74.00;;;;;;5065301;28;20029;-67
2023/03/22 00:34:20;;;;;;;3.22;0.73;;;17.60;73.90;;;;;;5033345;28;20022;-67
2023/03/22 00:36:47;;;;;;;5.30;0.80;;;17.50;73.80;;;;;;5065252;28;20032;-67
2023/03/22 00:39:12;;;;;;;1.80;0.50;;;17.60;74.00;;;;;;5033322;28;20032;-67
2023/03/22 00:41:38;;;;;;;1.92;0.60;;;17.60;74.10;;;;;;5065293;28;20029;-67
2023/03/22 00:44:04;;;;;;;1.48;0.50;;;17.60;74.20;;;;;;5033021;28;20034;-67
2023/03/22 00:46:29;;;;;;;1.63;0.47;;;17.60;74.20;;;;;;5033244;28;20032;-67
2023/03/22 00:48:55;;;;;;;1.33;0.60;;;17.50;74.20;;;;;;5064492;28;20033;-67
2023/03/22 00:51:21;;;;;;;1.10;0.50;;;17.50;74.30;;;;;;5064588;28;20136;-67
2023/03/22 00:53:49;;;;;;;1.58;0.70;;;17.50;74.30;;;;;;5065032;28;20096;-67
2023/03/22 00:56:15;;;;;;;1.77;0.50;;;17.50;74.30;;;;;;5064242;28;20017;-67
2023/03/22 00:58:41;;;;;;;1.27;0.50;;;17.60;74.30;;;;;;5064783;28;20024;-67
2023/03/22 01:01:07;;;;;;;1.88;0.70;;;17.50;74.50;;;;;;5065070;28;20465;-67
2023/03/22 01:03:33;;;;;;;2.38;0.68;;;17.50;74.60;;;;;;5032926;28;20067;-67
2023/03/22 01:05:59;;;;;;;1.38;0.52;;;17.50;74.70;;;;;;5049586;28;20028;-67
2023/03/22 01:08:31;;;;;;;1.42;0.50;;;17.50;74.70;;;;;;5084763;28;20013;-67
2023/03/22 01:10:57;;;;;;;2.70;0.88;;;17.50;74.70;;;;;;5083206;28;20025;-67
2023/03/22 01:13:23;;;;;;;1.75;0.55;;;17.50;74.80;;;;;;5038820;28;20082;-67
2023/03/22 01:15:51;;;;;;;1.95;0.60;;;17.50;74.80;;;;;;5064783;28;20025;-67
2023/03/22 01:18:17;;;;;;;1.17;0.50;;;17.50;74.90;;;;;;5064654;28;20040;-67
2023/03/22 01:20:43;;;;;;;1.02;0.50;;;17.50;74.90;;;;;;5032473;28;20014;-67
2023/03/22 01:23:08;;;;;;;0.95;0.52;;;17.50;74.80;;;;;;5032440;28;20034;-67
2023/03/22 01:25:34;;;;;;;1.30;0.50;;;17.50;74.80;;;;;;5064642;28;20397;-68
2023/03/22 01:28:01;;;;;;;1.95;0.68;;;17.50;75.00;;;;;;5064376;28;20026;-67
2023/03/22 01:30:28;;;;;;;2.15;0.50;;;17.50;74.80;;;;;;5032445;28;20025;-67
2023/03/22 01:32:54;;;;;;;1.10;0.30;;;17.50;74.90;;;;;;5064310;28;20417;-67
2023/03/22 01:35:20;;;;;;;5.85;0.68;;;17.50;75.00;;;;;;5032151;28;20017;-67
2023/03/22 01:37:45;;;;;;;3.65;0.77;;;17.40;75.00;;;;;;5047929;28;20573;-67
2023/03/22 01:40:12;;;;;;;1.45;0.55;;;17.50;75.00;;;;;;5032200;28;20405;-67
2023/03/22 01:42:37;;;;;;;1.67;0.60;;;17.40;75.00;;;;;;5064482;28;20025;-68
2023/03/22 01:45:12;;;;;;;1.25;0.43;;;17.50;75.20;;;;;;5032256;28;20516;-67
2023/03/22 01:48:00;;;;;;;2.28;0.60;;;17.40;75.10;;;;;;5032404;28;20428;-67
2023/03/22 01:50:26;;;;;;;1.45;0.35;;;17.40;75.10;;;;;;5031979;28;20045;-67
2023/03/22 01:52:51;;;;;;;5.63;0.70;;;17.50;75.20;;;;;;5047289;28;20518;-67
2023/03/22 01:55:17;;;;;;;2.17;0.63;;;17.50;75.20;;;;;;5047508;28;20029;-67
2023/03/22 01:57:43;;;;;;;1.15;0.45;;;17.50;75.20;;;;;;5032207;28;20026;-67
2023/03/22 02:00:12;;;;;;;2.05;0.93;;;17.50;75.20;;;;;;5049043;28;20486;-67
2023/03/22 02:02:38;;;;;;;1.40;0.47;;;17.50;75.20;;;;;;5051048;28;20080;-67
2023/03/22 02:05:04;;;;;;;1.92;0.73;;;17.40;75.00;;;;;;5045381;28;20025;-67
2023/03/22 02:07:31;;;;;;;4.85;0.40;;;17.50;75.10;;;;;;5056073;28;20408;-67
2023/03/22 02:09:57;;;;;;;2.25;0.50;;;17.40;75.10;;;;;;5054686;28;20032;-67
2023/03/22 02:12:34;;;;;;;4.60;0.47;;;17.50;75.10;;;;;;5048851;28;20032;-67
2023/03/22 02:15:21;;;;;;;1.88;0.50;;;17.50;75.10;;;;;;5036002;28;20092;-67
2023/03/22 02:17:50;;;;;;;3.80;0.75;;;17.50;75.10;;;;;;5068036;28;20037;-67
2023/03/22 02:20:58;;;;;;;2.42;0.60;;;17.40;75.20;;;;;;5035913;28;20013;-67
2023/03/22 02:23:48;;;;;;;1.98;0.40;;;17.40;75.20;;;;;;5063016;28;20025;-67
2023/03/22 02:26:38;;;;;;;1.20;0.60;;;17.40;75.20;;;;;;5035614;28;20053;-67
2023/03/22 02:29:22;;;;;;;3.45;0.90;;;17.40;75.20;;;;;;5034419;28;20401;-67
2023/03/22 02:32:08;;;;;;;1.50;0.50;;;17.40;75.20;;;;;;5035545;28;20065;-67
2023/03/22 02:34:50;;;;;;;2.28;0.93;;;17.40;75.20;;;;;;5067748;28;20028;-67
2023/03/22 02:37:37;;;;;;;1.83;0.50;;;17.40;75.20;;;;;;5066625;28;20022;-67
2023/03/22 02:40:21;;;;;;;1.00;0.20;;;17.40;75.10;;;;;;5035491;28;20033;-67
2023/03/22 02:42:46;;;;;;;1.10;0.38;;;17.40;75.20;;;;;;5035441;28;20045;-67
2023/03/22 02:45:18;;;;;;;2.20;0.80;;;17.40;75.30;;;;;;5035392;28;20033;-67
2023/03/22 02:47:54;;;;;;;2.50;0.68;;;17.40;75.20;;;;;;5050132;28;20032;-67
2023/03/22 02:50:28;;;;;;;2.95;0.77;;;17.40;75.20;;;;;;5035216;28;20105;-67
2023/03/22 02:52:56;;;;;;;1.75;0.65;;;17.40;75.20;;;;;;5033606;28;20534;-67
2023/03/22 02:55:30;;;;;;;1.83;0.50;;;17.40;75.20;;;;;;5067207;28;20072;-67
2023/03/22 02:58:10;;;;;;;0.93;0.40;;;17.40;75.20;;;;;;5050466;28;20021;-67
2023/03/22 03:00:37;;;;;;;3.28;0.60;;;17.40;75.20;;;;;;5064718;28;20018;-67
2023/03/22 03:03:11;;;;;;;2.25;0.60;;;17.40;75.30;;;;;;5050221;28;20040;-67
2023/03/22 03:05:41;;;;;;;1.58;0.63;;;17.40;75.20;;;;;;5047777;28;20408;-67
2023/03/22 03:08:07;;;;;;;2.30;0.50;;;17.40;75.30;;;;;;5053780;28;20021;-67
2023/03/22 03:10:33;;;;;;;1.25;0.50;;;17.40;75.40;;;;;;5053763;28;20033;-67
2023/03/22 03:12:58;;;;;;;1.70;0.80;;;17.40;75.30;;;;;;5052744;28;20021;-67
2023/03/22 03:15:25;;;;;;;0.82;0.50;;;17.40;75.30;;;;;;5053315;28;20021;-67
2023/03/22 03:18:03;;;;;;;1.27;0.70;;;17.40;75.30;;;;;;5053556;28;20394;-67
2023/03/22 03:20:53;;;;;;;1.90;0.63;;;17.40;75.40;;;;;;5054657;28;20021;-67
2023/03/22 03:23:28;;;;;;;0.80;0.43;;;17.40;75.30;;;;;;5054609;28;20029;-67
2023/03/22 03:26:26;;;;;;;2.70;0.40;;;17.40;75.30;;;;;;5053541;28;20021;-67
2023/03/22 03:28:58;;;;;;;3.40;0.85;;;17.40;75.30;;;;;;5053746;28;20542;-67
2023/03/22 03:31:29;;;;;;;2.25;0.60;;;17.40;75.40;;;;;;5054435;28;20028;-67
2023/03/22 03:34:09;;;;;;;1.42;0.60;;;17.30;75.20;;;;;;5054493;28;20021;-67
2023/03/22 03:36:36;;;;;;;1.85;0.60;;;17.40;75.30;;;;;;5053347;28;20124;-67
2023/03/22 03:39:03;;;;;;;0.60;0.22;;;17.30;75.30;;;;;;5053021;28;20025;-67
2023/03/22 03:41:29;;;;;;;1.73;0.70;;;17.40;75.40;;;;;;5053175;28;20523;-67
2023/03/22 03:43:55;;;;;;;1.02;0.50;;;17.40;75.40;;;;;;5053028;28;20033;-67
2023/03/22 03:46:20;;;;;;;2.42;0.65;;;17.40;75.50;;;;;;5052803;28;20025;-67
2023/03/22 03:48:47;;;;;;;1.00;0.40;;;17.40;75.50;;;;;;5054310;28;20116;-67
2023/03/22 03:51:13;;;;;;;1.40;0.50;;;17.40;75.50;;;;;;5052654;28;20039;-67
2023/03/22 03:53:39;;;;;;;0.95;0.50;;;17.40;75.50;;;;;;5052952;28;20456;-67
2023/03/22 03:56:05;;;;;;;2.10;1.00;;;17.30;75.40;;;;;;5054173;28;20021;-67
2023/03/22 03:58:31;;;;;;;1.10;0.50;;;17.30;75.40;;;;;;5053857;28;20116;-67
2023/03/22 04:00:56;;;;;;;0.85;0.30;;;17.30;75.40;;;;;;5053866;28;20119;-67
2023/03/22 04:03:22;;;;;;;1.30;0.57;;;17.40;75.50;;;;;;5053779;28;20104;-67
2023/03/22 04:05:47;;;;;;;0.82;0.40;;;17.30;75.50;;;;;;5052595;28;20029;-67
2023/03/22 04:08:13;;;;;;;1.48;0.60;;;17.40;75.50;;;;;;5053922;28;20032;-67
2023/03/22 04:10:39;;;;;;;1.75;0.38;;;17.30;75.50;;;;;;5052507;28;20032;-67
2023/03/22 04:13:05;;;;;;;0.60;0.28;;;17.40;75.60;;;;;;5041037;28;20425;-67
2023/03/22 04:15:31;;;;;;;1.45;0.60;;;17.30;75.50;;;;;;5065724;28;20413;-67
2023/03/22 04:17:57;;;;;;;2.05;0.50;;;17.30;75.50;;;;;;5033598;28;20025;-67
2023/03/22 04:20:25;;;;;;;2.17;0.47;;;17.30;75.50;;;;;;5065492;28;20022;-67
2023/03/22 04:22:51;;;;;;;1.83;0.60;;;17.40;75.50;;;;;;5048292;28;20025;-67
2023/03/22 04:25:17;;;;;;;2.70;0.63;;;17.30;75.50;;;;;;5065039;28;20132;-67
2023/03/22 04:27:43;;;;;;;1.85;0.40;;;17.30;75.50;;;;;;5048980;28;20446;-67
2023/03/22 04:30:11;;;;;;;1.38;0.45;;;17.30;75.50;;;;;;5065209;28;20018;-67
2023/03/22 04:32:37;;;;;;;2.63;0.65;;;17.30;75.60;;;;;;5065466;28;20179;-67
2023/03/22 04:35:03;;;;;;;1.13;0.38;;;17.30;75.60;;;;;;5048587;28;20537;-67
2023/03/22 04:37:30;;;;;;;1.25;0.35;;;17.30;75.60;;;;;;5048733;28;20029;-67
2023/03/22 04:39:57;;;;;;;0.73;0.35;;;17.30;75.60;;;;;;5033402;28;20013;-67
2023/03/22 04:42:23;;;;;;;2.67;0.50;;;17.30;75.60;;;;;;5048182;28;20033;-67
2023/03/22 04:44:49;;;;;;;1.67;0.50;;;17.30;75.70;;;;;;5065390;28;20397;-67
2023/03/22 04:47:14;;;;;;;2.30;0.70;;;17.30;75.70;;;;;;5033144;28;20025;-67
2023/03/22 04:49:41;;;;;;;1.13;0.40;;;17.30;75.60;;;;;;5048436;28;20022;-67
2023/03/22 04:52:06;;;;;;;0.70;0.40;;;17.30;75.70;;;;;;5064905;28;20053;-67
2023/03/22 04:54:32;;;;;;;1.52;0.55;;;17.30;75.80;;;;;;5064913;28;20026;-67
2023/03/22 04:56:58;;;;;;;1.33;0.52;;;17.30;75.70;;;;;;5032865;28;20120;-67
2023/03/22 04:59:23;;;;;;;1.35;0.50;;;17.30;75.70;;;;;;5033055;28;20013;-67
2023/03/22 05:01:50;;;;;;;2.50;0.50;;;17.30;75.80;;;;;;5033084;28;20098;-67
2023/03/22 05:04:16;;;;;;;0.40;0.40;;;17.30;75.90;;;;;;5067865;28;20017;-67
2023/03/22 05:06:41;;;;;;;0.98;0.47;;;17.30;75.90;;;;;;5051404;28;20033;-67
2023/03/22 05:09:07;;;;;;;1.77;0.60;;;17.30;75.80;;;;;;5051547;28;20029;-67
2023/03/22 05:11:33;;;;;;;1.00;0.40;;;17.30;76.00;;;;;;5051244;28;20050;-67
2023/03/22 05:13:59;;;;;;;0.95;0.43;;;17.30;75.90;;;;;;5032652;28;20083;-67
2023/03/22 05:16:24;;;;;;;1.20;0.50;;;17.20;75.90;;;;;;5064689;28;20021;-67
2023/03/22 05:18:53;;;;;;;2.13;0.60;;;17.30;75.90;;;;;;5032657;28;20022;-67
2023/03/22 05:21:20;;;;;;;0.70;0.30;;;17.30;75.90;;;;;;5063777;28;20060;-67
2023/03/22 05:23:46;;;;;;;0.75;0.30;;;17.30;76.10;;;;;;5032548;28;20029;-67
2023/03/22 05:26:14;;;;;;;1.20;0.40;;;17.30;76.00;;;;;;5047670;28;20028;-67
2023/03/22 05:28:41;;;;;;;1.50;0.52;;;17.30;76.00;;;;;;5047600;28;20071;-67
2023/03/22 05:31:07;;;;;;;0.47;0.30;;;17.30;76.00;;;;;;5064124;28;20025;-67
2023/03/22 05:33:33;;;;;;;1.33;0.40;;;17.30;76.00;;;;;;5064551;28;20072;-67
2023/03/22 05:35:59;;;;;;;2.05;0.40;;;17.30;76.10;;;;;;5063797;28;20074;-67
2023/03/22 05:38:25;;;;;;;0.65;0.30;;;17.30;76.00;;;;;;5032303;28;20030;-67
2023/03/22 05:40:50;;;;;;;1.35;0.60;;;17.30;76.00;;;;;;5064203;28;20033;-67
2023/03/22 05:43:16;;;;;;;0.73;0.45;;;17.30;76.10;;;;;;5032071;28;20030;-67
2023/03/22 05:45:42;;;;;;;1.50;0.57;;;17.30;76.20;;;;;;5064463;28;20426;-67
2023/03/22 05:48:07;;;;;;;1.80;0.45;;;17.30;76.10;;;;;;5032370;28;20559;-67
2023/03/22 05:50:33;;;;;;;0.70;0.40;;;17.30;76.10;;;;;;5064300;28;20060;-67
2023/03/22 05:52:59;;;;;;;1.23;0.45;;;17.30;76.20;;;;;;5064012;28;20142;-67
2023/03/22 05:55:25;;;;;;;1.30;0.40;;;17.30;76.10;;;;;;5063921;28;20022;-67
2023/03/22 05:57:52;;;;;;;1.27;0.40;;;17.20;76.20;;;;;;5069049;28;20016;-67
2023/03/22 06:00:19;;;;;;;1.08;0.40;;;17.30;76.20;;;;;;5050039;28;20458;-67
2023/03/22 06:02:46;;;;;;;1.10;0.50;;;17.30;76.30;;;;;;5051919;28;20057;-67
2023/03/22 06:05:12;;;;;;;2.00;0.77;;;17.30;76.40;;;;;;5050756;28;20029;-67
2023/03/22 06:07:39;;;;;;;1.52;0.55;;;17.20;76.30;;;;;;5033895;28;20123;-67
2023/03/22 06:10:06;;;;;;;1.15;0.47;;;17.30;76.50;;;;;;5052087;28;20024;-67
2023/03/22 06:12:31;;;;;;;1.38;0.55;;;17.20;76.50;;;;;;5033830;28;20021;-67
2023/03/22 06:14:57;;;;;;;1.65;0.38;;;17.20;76.50;;;;;;5051930;28;20504;-67
2023/03/22 06:17:23;;;;;;;0.82;0.50;;;17.20;76.60;;;;;;5051867;28;20551;-67
2023/03/22 06:19:49;;;;;;;1.58;0.35;;;17.20;76.50;;;;;;5050959;28;20017;-67
2023/03/22 06:22:15;;;;;;;3.80;0.47;;;17.20;76.60;;;;;;5052032;28;20029;-67
2023/03/22 06:24:41;;;;;;;0.65;0.30;;;17.20;76.50;;;;;;5034249;28;20043;-67
2023/03/22 06:27:07;;;;;;;1.23;0.40;;;17.20;76.60;;;;;;5034358;28;20115;-67
2023/03/22 06:29:32;;;;;;;0.93;0.30;;;17.20;76.60;;;;;;5050804;28;20021;-67
2023/03/22 06:31:58;;;;;;;1.23;0.50;;;17.20;76.60;;;;;;5052417;28;20036;-67
2023/03/22 06:34:25;;;;;;;1.65;0.40;;;17.20;76.50;;;;;;5050780;28;20024;-67
2023/03/22 06:36:52;;;;;;;0.95;0.35;;;17.20;76.60;;;;;;5050057;28;20078;-67
2023/03/22 06:39:18;;;;;;;0.60;0.30;;;17.20;76.60;;;;;;5050460;28;20025;-67
2023/03/22 06:41:44;;;;;;;0.95;0.40;;;17.20;76.60;;;;;;5050717;28;20025;-67
2023/03/22 06:44:10;;;;;;;0.98;0.32;;;17.20;76.60;;;;;;5049903;28;20025;-67
2023/03/22 06:46:35;;;;;;;0.70;0.20;;;17.20;76.60;;;;;;5050420;28;20029;-67
2023/03/22 06:49:01;;;;;;;0.70;0.40;;;17.20;76.60;;;;;;5055305;28;20104;-67
2023/03/22 06:51:26;;;;;;;1.65;0.50;;;17.20;76.60;;;;;;5053910;28;20148;-67
2023/03/22 06:53:52;;;;;;;1.15;0.30;;;17.20;76.60;;;;;;5053909;28;20028;-67
2023/03/22 06:56:18;;;;;;;2.55;0.40;;;17.20;76.50;;;;;;5054090;28;20025;-67
2023/03/22 06:58:44;;;;;;;1.05;0.60;;;17.20;76.60;;;;;;5055209;28;20051;-67
2023/03/22 07:01:09;;;;;;;1.23;0.40;;;17.20;76.70;;;;;;5055145;28;20090;-67
2023/03/22 07:03:35;;;;;;;0.50;0.25;;;17.20;76.60;;;;;;5053921;28;20432;-67
2023/03/22 07:06:01;;;;;;;2.47;0.75;;;17.30;76.40;;;;;;5054895;28;20028;-68
2023/03/22 07:08:27;;;;;;;0.93;0.50;;;17.30;75.40;;;;;;5070174;28;20492;-68
2023/03/22 07:10:53;;;;;;;0.80;0.30;;;17.30;74.90;;;;;;5055068;28;20052;-68
2023/03/22 07:13:18;;;;;;;0.63;0.40;;;17.30;74.60;;;;;;5054546;28;20107;-69
2023/03/22 07:15:44;;;;;;;1.30;0.40;;;17.30;74.40;;;;;;5054821;28;20117;-68
2023/03/22 07:18:10;;;;;;;1.98;0.45;;;17.30;74.20;;;;;;5054966;28;20081;-68
2023/03/22 07:20:37;;;;;;;0.45;0.30;;;17.30;74.20;;;;;;5053522;28;20067;-69
2023/03/22 07:23:03;;;;;;;1.60;0.40;;;17.30;74.10;;;;;;5053142;28;20056;-69
2023/03/22 07:25:29;;;;;;;1.17;0.43;;;17.30;74.00;;;;;;5053557;28;20033;-69
2023/03/22 07:27:55;;;;;;;0.68;0.47;;;17.30;73.80;;;;;;5054785;28;20074;-69
2023/03/22 07:30:21;;;;;;;1.05;0.35;;;17.30;73.80;;;;;;5053224;28;20090;-69
2023/03/22 07:32:46;;;;;;;0.90;0.30;;;17.30;73.70;;;;;;5053607;28;20483;-69
2023/03/22 07:35:12;;;;;;;1.33;0.32;;;17.30;73.50;;;;;;5053432;28;20563;-69
2023/03/22 07:37:38;;;;;;;0.93;0.35;;;17.30;73.50;;;;;;5054099;28;20029;-69
2023/03/22 07:40:04;;;;;;;2.08;0.47;;;17.30;73.40;;;;;;5054457;28;20108;-69
2023/03/22 07:42:30;;;;;;;1.55;0.40;;;17.30;73.30;;;;;;5054261;28;20040;-69
2023/03/22 07:44:56;;;;;;;0.77;0.30;;;17.40;73.30;;;;;;5052032;28;20028;-68
2023/03/22 07:47:22;;;;;;;10.88;1.23;;;17.40;73.30;;;;;;5052918;28;20048;-67
2023/03/22 07:49:47;;;;;;;7.45;1.58;;;17.30;74.00;;;;;;5034100;28;20032;-68
2023/03/22 07:52:13;;;;;;;6.85;1.00;;;17.40;74.90;;;;;;5033758;28;20042;-68
2023/03/22 07:54:39;;;;;;;7.55;1.15;;;17.40;75.40;;;;;;5016301;28;20108;-68
2023/03/22 07:57:05;;;;;;;5.68;1.13;;;17.40;75.60;;;;;;5032973;28;20071;-68
2023/03/22 07:59:31;;;;;;;3.15;0.73;;;17.40;75.80;;;;;;5033006;28;20048;-68
2023/03/22 08:01:57;;;;;;;4.68;1.00;;;17.50;75.90;;;;;;5031352;28;20557;-68
2023/03/22 08:04:23;;;;;;;5.20;0.95;;;17.50;75.80;;;;;;5048302;28;20079;-68
2023/03/22 08:06:50;;;;;;;3.00;0.80;;;17.50;75.80;;;;;;5048385;28;20020;-68
2023/03/22 08:09:16;;;;;;;2.17;0.80;;;17.50;75.70;;;;;;5051160;28;20025;-68
2023/03/22 08:11:41;;;;;;;4.93;0.68;;;17.50;75.50;;;;;;5051273;28;20075;-68
2023/03/22 08:14:07;;;;;;;2.25;0.60;;;17.50;75.40;;;;;;5043110;28;20517;-68
2023/03/22 08:16:33;;;;;;;1.95;0.70;;;17.50;75.20;;;;;;5065631;28;20478;-68
2023/03/22 08:18:59;;;;;;;1.60;0.70;;;17.50;75.00;;;;;;5033849;28;20022;-68
2023/03/22 08:21:25;;;;;;;2.22;0.75;;;17.50;76.00;;;;;;5048892;28;20025;-68
2023/03/22 08:23:51;;;;;;;1.10;0.75;;;17.50;74.80;;;;;;5083458;28;20028;-68
2023/03/22 08:26:17;;;;;;;4.32;0.80;;;17.50;74.70;;;;;;5053658;28;20403;-68
2023/03/22 08:28:43;;;;;;;1.45;0.47;;;17.50;74.60;;;;;;5052423;28;20029;-68
2023/03/22 08:31:13;;;;;;;2.58;0.70;;;17.50;74.40;;;;;;5052205;28;20021;-69
2023/03/22 08:33:38;;;;;;;1.25;0.65;;;17.50;74.30;;;;;;5051933;28;20032;-69
2023/03/22 08:36:09;;;;;;;2.25;0.70;;;17.50;74.20;;;;;;5053247;28;20017;-69
2023/03/22 08:38:34;;;;;;;2.70;0.85;;;17.50;74.20;;;;;;5053166;28;20021;-69
2023/03/22 08:41:00;;;;;;;1.20;0.52;;;17.50;74.30;;;;;;5034629;28;20385;-69
2023/03/22 08:43:25;;;;;;;1.88;0.52;;;17.50;74.10;;;;;;5048466;28;20497;-69
2023/03/22 08:45:51;;;;;;;1.23;0.47;;;17.50;74.10;;;;;;5048507;28;20026;-69
2023/03/22 08:48:17;;;;;;;2.15;0.80;;;17.50;74.00;;;;;;5072829;28;20125;-69
2023/03/22 08:50:42;;;;;;;2.72;0.60;;;17.60;74.00;;;;;;5052567;28;20457;-69
2023/03/22 08:53:09;;;;;;;1.00;0.57;;;17.50;73.90;;;;;;5052924;28;20087;-69
2023/03/22 08:55:35;;;;;;;0.95;0.43;;;17.50;73.80;;;;;;5052946;28;20078;-69
2023/03/22 08:58:02;;;;;;;1.45;0.57;;;17.50;73.80;;;;;;5052933;28;20424;-69
2023/03/22 09:00:28;;;;;;;2.13;0.57;;;17.50;73.80;;;;;;5051599;28;20048;-69
2023/03/22 09:02:53;;;;;;;0.85;0.45;;;17.50;73.80;;;;;;5053001;28;20539;-69
2023/03/22 09:05:19;;;;;;;1.02;0.30;;;17.60;73.70;;;;;;5052556;28;20113;-69
2023/03/22 09:07:45;;;;;;;1.30;0.65;;;17.50;73.70;;;;;;5052549;28;20036;-69
2023/03/22 09:10:10;;;;;;;1.45;0.40;;;17.50;73.70;;;;;;5052304;28;20056;-69
2023/03/22 09:12:36;;;;;;;0.50;0.43;;;17.60;73.70;;;;;;5051285;28;20024;-69
2023/03/22 09:15:03;;;;;;;1.88;0.65;;;17.50;73.60;;;;;;5051386;28;20427;-69
2023/03/22 09:17:28;;;;;;;0.82;0.52;;;17.60;73.70;;;;;;5052612;28;20017;-69
2023/03/22 09:19:54;;;;;;;0.90;0.57;;;17.50;73.60;;;;;;5052369;28;20078;-69
2023/03/22 09:22:20;;;;;;;0.88;0.40;;;17.50;73.60;;;;;;5052471;28;20029;-69
2023/03/22 09:24:45;;;;;;;3.25;0.50;;;17.50;73.60;;;;;;5052538;28;20029;-69
2023/03/22 09:27:11;;;;;;;1.90;0.50;;;17.60;73.60;;;;;;5052397;28;20021;-69
2023/03/22 09:29:36;;;;;;;0.93;0.40;;;17.60;73.60;;;;;;5051313;28;20036;-69
2023/03/22 09:32:02;;;;;;;0.40;0.30;;;17.50;73.50;;;;;;5052352;28;20033;-69
2023/03/22 09:34:28;;;;;;;1.70;0.60;;;17.50;73.50;;;;;;5050919;28;20017;-69
2023/03/22 09:36:53;;;;;;;1.15;0.55;;;17.50;73.60;;;;;;5052138;28;20021;-69
2023/03/22 09:39:19;;;;;;;0.88;0.38;;;17.60;73.60;;;;;;5051260;28;20021;-69
2023/03/22 09:41:50;;;;;;;0.95;0.40;;;17.50;73.50;;;;;;5051037;28;20032;-69
2023/03/22 09:44:31;;;;;;;1.15;0.35;;;17.50;73.50;;;;;;5051109;28;20481;-69
2023/03/22 09:46:58;;;;;;;1.73;0.45;;;17.60;73.60;;;;;;5050847;28;20074;-69
2023/03/22 09:49:28;;;;;;;1.02;0.38;;;17.60;73.60;;;;;;5050955;28;20025;-69
2023/03/22 09:51:54;;;;;;;0.45;0.40;;;17.50;73.60;;;;;;5050682;28;20191;-69
2023/03/22 09:54:26;;;;;;;0.73;0.30;;;17.60;73.60;;;;;;5051158;28;20552;-69
2023/03/22 09:57:17;;;;;;;0.68;0.35;;;17.60;73.60;;;;;;5052112;28;20065;-69
2023/03/22 09:59:44;;;;;;;0.80;0.43;;;17.60;73.60;;;;;;5051646;28;20033;-69
2023/03/22 10:02:34;;;;;;;0.75;0.60;;;17.60;73.60;;;;;;5050794;28;20028;-69
2023/03/22 10:05:26;;;;;;;0.90;0.40;;;17.60;73.60;;;;;;5052025;28;20021;-69
2023/03/22 10:08:15;;;;;;;0.88;0.47;;;17.60;73.60;;;;;;5051842;28;20032;-69
2023/03/22 10:10:41;;;;;;;0.55;0.28;;;17.60;73.60;;;;;;5051512;28;20041;-69
2023/03/22 10:13:14;;;;;;;0.45;0.38;;;17.60;73.60;;;;;;5048478;28;20039;-69
2023/03/22 10:15:40;;;;;;;0.30;0.20;;;17.60;73.60;;;;;;5063562;28;20018;-69
2023/03/22 10:18:10;;;;;;;2.47;0.45;;;17.60;73.60;;;;;;5031918;28;20481;-69
2023/03/22 10:20:49;;;;;;;1.27;0.30;;;17.60;73.60;;;;;;5047486;28;20393;-69
2023/03/22 10:23:19;;;;;;;0.30;0.20;;;17.60;73.50;;;;;;5064691;28;20479;-69
2023/03/22 10:25:44;;;;;;;0.40;0.30;;;17.60;73.50;;;;;;5050788;28;20029;-69
2023/03/22 10:28:21;;;;;;;0.20;0.20;;;17.60;73.50;;;;;;5067987;28;20028;-69
2023/03/22 10:30:52;;;;;;;0.40;0.20;;;17.60;73.40;;;;;;5050841;28;20021;-69
2023/03/22 10:33:39;;;;;;;0.82;0.35;;;17.60;73.40;;;;;;5050720;28;20029;-69
2023/03/22 10:36:11;;;;;;;0.75;0.30;;;17.60;73.40;;;;;;5035859;28;20014;-69
2023/03/22 10:38:42;;;;;;;0.63;0.30;;;17.60;73.30;;;;;;5050564;28;20507;-69
2023/03/22 10:41:08;;;;;;;0.90;0.40;;;17.60;73.30;;;;;;5066697;28;20396;-69
2023/03/22 10:43:35;;;;;;;0.98;0.30;;;17.60;73.30;;;;;;5067487;28;20062;-69
2023/03/22 10:46:02;;;;;;;0.52;0.40;;;17.60;73.30;;;;;;5050629;28;20017;-69
2023/03/22 10:48:31;;;;;;;0.57;0.40;;;17.60;73.30;;;;;;5076172;28;20378;-69
2023/03/22 10:50:57;;;;;;;0.82;0.35;;;17.60;73.30;;;;;;5037491;28;20409;-69
2023/03/22 10:53:23;;;;;;;0.45;0.35;;;17.60;73.20;;;;;;5054217;28;20523;-69
2023/03/22 10:55:49;;;;;;;0.60;0.30;;;17.60;73.30;;;;;;5055223;28;20017;-69
2023/03/22 10:58:16;;;;;;;0.73;0.20;;;17.70;73.20;;;;;;5054357;28;20021;-69
2023/03/22 11:00:55;;;;;;;1.05;0.40;;;17.60;73.20;;;;;;5053969;28;20013;-69
2023/03/22 11:03:40;;;;;;;1.35;0.30;;;17.60;73.20;;;;;;5053897;28;20055;-69
2023/03/22 11:06:19;;;;;;;1.02;0.20;;;17.60;73.10;;;;;;5055430;28;20021;-69
2023/03/22 11:08:45;;;;;;;0.30;0.20;;;17.60;73.20;;;;;;5053806;28;20413;-69
2023/03/22 11:11:28;;;;;;;0.82;0.30;;;17.60;73.10;;;;;;5055061;28;20021;-69
2023/03/22 11:13:53;;;;;;;1.05;0.30;;;17.60;73.10;;;;;;5053380;28;20476;-69
2023/03/22 11:16:19;;;;;;;0.43;0.20;;;17.60;73.10;;;;;;5054929;28;20028;-69
2023/03/22 11:18:45;;;;;;;0.85;0.25;;;17.60;73.10;;;;;;5053730;28;20021;-69
2023/03/22 11:21:11;;;;;;;0.20;0.17;;;17.60;73.10;;;;;;5053618;28;20017;-69
2023/03/22 11:23:37;;;;;;;0.30;0.20;;;17.60;73.10;;;;;;5053589;28;20033;-69
2023/03/22 11:26:13;;;;;;;0.40;0.28;;;17.60;73.00;;;;;;5053426;28;20504;-69
2023/03/22 11:28:46;;;;;;;0.82;0.30;;;17.60;73.00;;;;;;5053392;28;20499;-69
2023/03/22 11:31:16;;;;;;;0.17;0.17;;;17.60;73.00;;;;;;5053315;28;20087;-69
2023/03/22 11:33:59;;;;;;;1.45;0.22;;;17.60;73.00;;;;;;5052706;28;20025;-69
2023/03/22 11:36:24;;;;;;;0.65;0.20;;;17.60;72.90;;;;;;5053541;28;20017;-69
2023/03/22 11:39:01;;;;;;;0.55;0.22;;;17.60;72.90;;;;;;5053292;28;20032;-69
2023/03/22 11:41:34;;;;;;;0.75;0.20;;;17.60;72.90;;;;;;5053320;28;20013;-69
2023/03/22 11:44:01;;;;;;;0.40;0.10;;;17.60;73.90;;;;;;5052903;28;20473;-69
2023/03/22 11:46:28;;;;;;;0.32;0.22;;;17.60;72.90;;;;;;5053191;28;20037;-69
2023/03/22 11:48:56;;;;;;;0.20;0.20;;;17.60;72.90;;;;;;5052859;28;20032;-69
2023/03/22 11:51:40;;;;;;;0.50;0.28;;;17.60;72.90;;;;;;5052855;28;20037;-69
2023/03/22 11:54:35;;;;;;;0.35;0.17;;;17.60;72.90;;;;;;5052969;28;20100;-69
2023/03/22 11:57:05;;;;;;;0.22;0.10;;;17.60;72.80;;;;;;5048243;28;20036;-69
2023/03/22 11:59:38;;;;;;;0.80;0.20;;;17.60;72.80;;;;;;5052726;28;20025;-69
2023/03/22 12:02:30;;;;;;;0.57;0.20;;;17.60;72.80;;;;;;5036117;28;20436;-69
2023/03/22 12:05:05;;;;;;;0.55;0.28;;;17.60;72.80;;;;;;5052706;28;20071;-69
2023/03/22 12:07:31;;;;;;;0.20;0.20;;;17.60;72.80;;;;;;5052893;28;20123;-69
2023/03/22 12:10:19;;;;;;;0.73;0.25;;;17.60;72.80;;;;;;5052611;28;20060;-69
2023/03/22 12:13:00;;;;;;;0.30;0.20;;;17.60;72.70;;;;;;5052539;28;20021;-69
2023/03/22 12:15:32;;;;;;;0.32;0.13;;;17.60;72.80;;;;;;5050003;28;20048;-69
2023/03/22 12:18:34;;;;;;;0.22;0.22;;;17.60;72.80;;;;;;5049483;28;20025;-69
2023/03/22 12:21:00;;;;;;;0.20;0.20;;;17.60;72.70;;;;;;5032450;28;20504;-69
2023/03/22 12:23:33;;;;;;;0.32;0.20;;;17.60;72.70;;;;;;5032572;28;20021;-69
2023/03/22 12:26:15;;;;;;;0.30;0.30;;;17.60;72.80;;;;;;5032266;28;20465;-69
2023/03/22 12:28:46;;;;;;;0.30;0.10;;;17.60;72.70;;;;;;5032222;28;20040;-69
2023/03/22 12:31:36;;;;;;;0.10;0.10;;;17.60;72.70;;;;;;5049466;28;20064;-69
2023/03/22 12:34:05;;;;;;;0.30;0.10;;;17.60;72.60;;;;;;5032285;28;20147;-69
2023/03/22 12:36:45;;;;;;;0.20;0.10;;;17.60;72.70;;;;;;5049195;28;20025;-69
2023/03/22 12:39:22;;;;;;;1.25;0.20;;;17.60;72.60;;;;;;5050089;28;20018;-69
2023/03/22 12:41:48;;;;;;;0.55;0.20;;;17.60;72.60;;;;;;5033197;28;20108;-69
2023/03/22 12:44:22;;;;;;;0.08;0.08;;;17.60;72.60;;;;;;5047803;28;20104;-69
2023/03/22 12:46:56;;;;;;;1.10;0.20;;;17.60;72.70;;;;;;5049476;28;20116;-69
2023/03/22 12:49:34;;;;;;;0.40;0.20;;;17.70;72.70;;;;;;5065280;28;20028;-69
2023/03/22 12:52:23;;;;;;;0.40;0.30;;;17.70;72.70;;;;;;5052697;28;20099;-69
2023/03/22 12:54:48;;;;;;;0.25;0.20;;;17.60;72.60;;;;;;5079276;28;20511;-69
2023/03/22 12:57:15;;;;;;;0.10;0.10;;;17.70;72.60;;;;;;5068215;28;20021;-69